sensor_id;sensor_type;location;lat;lon;timestamp;P1;durP1;ratioP1;P2;durP2;ratioP2
37280;SDS011;23169;41.804;12.596;2022-07-22T00:01:27;13.35;;;8.35;;
37280;SDS011;23169;41.804;12.596;2022-07-22T00:03:58;14.95;;;7.45;;
37280;SDS011;23169;41.804;12.596;2022-07-22T00:06:28;10.52;;;7.40;;
37280;SDS011;23169;41.804;12.596;2022-07-22T00:08:56;12.98;;;7.15;;
37280;SDS011;23169;41.804;12.596;2022-07-22T00:11:25;11.07;;;7.00;;
37280;SDS011;23169;41.804;12.596;2022-07-22T00:13:53;10.95;;;6.82;;
37280;SDS011;23169;41.804;12.596;2022-07-22T00:16:22;14.65;;;7.05;;
37280;SDS011;23169;41.804;12.596;2022-07-22T00:18:50;11.23;;;6.43;;
37280;SDS011;23169;41.804;12.596;2022-07-22T00:21:19;14.80;;;6.88;;
37280;SDS011;23169;41.804;12.596;2022-07-22T00:23:47;12.90;;;7.20;;
37280;SDS011;23169;41.804;12.596;2022-07-22T00:26:16;9.38;;;6.88;;
37280;SDS011;23169;41.804;12.596;2022-07-22T00:28:44;14.02;;;7.32;;
37280;SDS011;23169;41.804;12.596;2022-07-22T00:31:13;11.98;;;7.20;;
37280;SDS011;23169;41.804;12.596;2022-07-22T00:33:44;14.20;;;7.40;;
37280;SDS011;23169;41.804;12.596;2022-07-22T00:36:15;12.93;;;7.43;;
37280;SDS011;23169;41.804;12.596;2022-07-22T00:38:44;12.93;;;7.40;;
37280;SDS011;23169;41.804;12.596;2022-07-22T00:41:12;10.32;;;7.20;;
37280;SDS011;23169;41.804;12.596;2022-07-22T00:43:54;13.35;;;7.45;;
37280;SDS011;23169;41.804;12.596;2022-07-22T00:46:28;11.57;;;6.93;;
37280;SDS011;23169;41.804;12.596;2022-07-22T00:48:58;12.13;;;7.53;;
37280;SDS011;23169;41.804;12.596;2022-07-22T00:51:27;13.50;;;7.38;;
37280;SDS011;23169;41.804;12.596;2022-07-22T00:53:57;11.35;;;7.18;;
37280;SDS011;23169;41.804;12.596;2022-07-22T00:56:28;12.30;;;7.43;;
37280;SDS011;23169;41.804;12.596;2022-07-22T00:58:59;10.52;;;7.13;;
37280;SDS011;23169;41.804;12.596;2022-07-22T01:01:30;14.82;;;7.38;;
37280;SDS011;23169;41.804;12.596;2022-07-22T01:03:59;16.63;;;7.45;;
37280;SDS011;23169;41.804;12.596;2022-07-22T01:06:29;10.52;;;7.00;;
37280;SDS011;23169;41.804;12.596;2022-07-22T01:08:58;10.23;;;7.07;;
37280;SDS011;23169;41.804;12.596;2022-07-22T01:11:28;11.75;;;7.15;;
37280;SDS011;23169;41.804;12.596;2022-07-22T01:13:56;11.57;;;7.13;;
37280;SDS011;23169;41.804;12.596;2022-07-22T01:16:25;12.82;;;7.50;;
37280;SDS011;23169;41.804;12.596;2022-07-22T01:18:53;13.23;;;6.82;;
37280;SDS011;23169;41.804;12.596;2022-07-22T01:21:21;12.48;;;7.32;;
37280;SDS011;23169;41.804;12.596;2022-07-22T01:23:50;9.25;;;6.47;;
37280;SDS011;23169;41.804;12.596;2022-07-22T01:26:18;13.93;;;7.35;;
37280;SDS011;23169;41.804;12.596;2022-07-22T01:28:47;16.73;;;7.25;;
37280;SDS011;23169;41.804;12.596;2022-07-22T01:31:15;12.27;;;6.80;;
37280;SDS011;23169;41.804;12.596;2022-07-22T01:33:45;10.13;;;7.10;;
37280;SDS011;23169;41.804;12.596;2022-07-22T01:36:13;14.70;;;6.85;;
37280;SDS011;23169;41.804;12.596;2022-07-22T01:38:41;11.38;;;6.63;;
37280;SDS011;23169;41.804;12.596;2022-07-22T01:41:09;11.73;;;6.82;;
37280;SDS011;23169;41.804;12.596;2022-07-22T01:43:38;12.80;;;6.88;;
37280;SDS011;23169;41.804;12.596;2022-07-22T01:46:09;13.57;;;7.30;;
37280;SDS011;23169;41.804;12.596;2022-07-22T01:48:38;11.60;;;6.95;;
37280;SDS011;23169;41.804;12.596;2022-07-22T01:51:07;15.10;;;7.15;;
37280;SDS011;23169;41.804;12.596;2022-07-22T01:53:35;10.43;;;6.50;;
37280;SDS011;23169;41.804;12.596;2022-07-22T01:56:03;10.55;;;6.45;;
37280;SDS011;23169;41.804;12.596;2022-07-22T01:58:32;11.82;;;7.32;;
37280;SDS011;23169;41.804;12.596;2022-07-22T02:01:03;11.23;;;7.15;;
37280;SDS011;23169;41.804;12.596;2022-07-22T02:03:31;11.15;;;7.18;;
37280;SDS011;23169;41.804;12.596;2022-07-22T02:06:00;12.40;;;7.10;;
37280;SDS011;23169;41.804;12.596;2022-07-22T02:08:30;10.60;;;7.35;;
37280;SDS011;23169;41.804;12.596;2022-07-22T02:10:58;13.77;;;6.80;;
37280;SDS011;23169;41.804;12.596;2022-07-22T02:13:26;14.20;;;7.45;;
37280;SDS011;23169;41.804;12.596;2022-07-22T02:15:55;18.65;;;7.40;;
37280;SDS011;23169;41.804;12.596;2022-07-22T02:18:23;15.68;;;6.75;;
37280;SDS011;23169;41.804;12.596;2022-07-22T02:20:52;14.77;;;7.00;;
37280;SDS011;23169;41.804;12.596;2022-07-22T02:23:20;15.75;;;6.95;;
37280;SDS011;23169;41.804;12.596;2022-07-22T02:25:48;23.35;;;7.88;;
37280;SDS011;23169;41.804;12.596;2022-07-22T02:28:19;17.73;;;6.78;;
37280;SDS011;23169;41.804;12.596;2022-07-22T02:30:47;15.10;;;6.97;;
37280;SDS011;23169;41.804;12.596;2022-07-22T02:33:16;14.85;;;6.85;;
37280;SDS011;23169;41.804;12.596;2022-07-22T02:35:44;18.02;;;7.30;;
37280;SDS011;23169;41.804;12.596;2022-07-22T02:38:12;9.75;;;6.38;;
37280;SDS011;23169;41.804;12.596;2022-07-22T02:40:41;13.80;;;7.25;;
37280;SDS011;23169;41.804;12.596;2022-07-22T02:43:10;10.75;;;6.80;;
37280;SDS011;23169;41.804;12.596;2022-07-22T02:45:39;11.68;;;7.18;;
37280;SDS011;23169;41.804;12.596;2022-07-22T02:48:07;13.52;;;7.10;;
37280;SDS011;23169;41.804;12.596;2022-07-22T02:50:35;11.30;;;6.70;;
37280;SDS011;23169;41.804;12.596;2022-07-22T02:53:05;13.15;;;6.35;;
37280;SDS011;23169;41.804;12.596;2022-07-22T02:55:33;12.65;;;6.70;;
37280;SDS011;23169;41.804;12.596;2022-07-22T02:58:05;10.32;;;6.60;;
37280;SDS011;23169;41.804;12.596;2022-07-22T03:00:35;11.85;;;7.35;;
37280;SDS011;23169;41.804;12.596;2022-07-22T03:03:05;9.65;;;7.13;;
37280;SDS011;23169;41.804;12.596;2022-07-22T03:05:33;14.75;;;7.03;;
37280;SDS011;23169;41.804;12.596;2022-07-22T03:08:02;9.25;;;6.57;;
37280;SDS011;23169;41.804;12.596;2022-07-22T03:10:32;10.43;;;6.78;;
37280;SDS011;23169;41.804;12.596;2022-07-22T03:13:00;15.98;;;6.50;;
37280;SDS011;23169;41.804;12.596;2022-07-22T03:15:29;11.60;;;6.95;;
37280;SDS011;23169;41.804;12.596;2022-07-22T03:18:01;13.38;;;7.60;;
37280;SDS011;23169;41.804;12.596;2022-07-22T03:20:30;12.25;;;7.30;;
37280;SDS011;23169;41.804;12.596;2022-07-22T03:22:58;12.85;;;7.15;;
37280;SDS011;23169;41.804;12.596;2022-07-22T03:25:27;13.15;;;7.53;;
37280;SDS011;23169;41.804;12.596;2022-07-22T03:27:55;12.00;;;7.55;;
37280;SDS011;23169;41.804;12.596;2022-07-22T03:30:23;13.20;;;7.80;;
37280;SDS011;23169;41.804;12.596;2022-07-22T03:32:51;12.15;;;7.28;;
37280;SDS011;23169;41.804;12.596;2022-07-22T03:35:19;10.10;;;7.15;;
37280;SDS011;23169;41.804;12.596;2022-07-22T03:37:48;11.60;;;7.45;;
37280;SDS011;23169;41.804;12.596;2022-07-22T03:40:16;13.25;;;7.28;;
37280;SDS011;23169;41.804;12.596;2022-07-22T03:42:44;12.93;;;7.20;;
37280;SDS011;23169;41.804;12.596;2022-07-22T03:45:13;11.95;;;7.00;;
37280;SDS011;23169;41.804;12.596;2022-07-22T03:47:42;14.50;;;7.20;;
37280;SDS011;23169;41.804;12.596;2022-07-22T03:50:11;11.50;;;7.10;;
37280;SDS011;23169;41.804;12.596;2022-07-22T03:52:40;14.45;;;7.47;;
37280;SDS011;23169;41.804;12.596;2022-07-22T03:55:08;19.30;;;7.82;;
37280;SDS011;23169;41.804;12.596;2022-07-22T03:57:36;23.02;;;8.50;;
37280;SDS011;23169;41.804;12.596;2022-07-22T04:00:04;23.40;;;9.05;;
37280;SDS011;23169;41.804;12.596;2022-07-22T04:02:33;18.83;;;7.75;;
37280;SDS011;23169;41.804;12.596;2022-07-22T04:05:04;22.83;;;8.45;;
37280;SDS011;23169;41.804;12.596;2022-07-22T04:07:33;19.60;;;8.60;;
37280;SDS011;23169;41.804;12.596;2022-07-22T04:10:01;15.57;;;7.93;;
37280;SDS011;23169;41.804;12.596;2022-07-22T04:12:33;14.32;;;8.18;;
37280;SDS011;23169;41.804;12.596;2022-07-22T04:15:03;12.73;;;8.57;;
37280;SDS011;23169;41.804;12.596;2022-07-22T04:17:33;15.55;;;7.82;;
37280;SDS011;23169;41.804;12.596;2022-07-22T04:20:04;14.18;;;8.05;;
37280;SDS011;23169;41.804;12.596;2022-07-22T04:22:36;12.73;;;8.23;;
37280;SDS011;23169;41.804;12.596;2022-07-22T04:25:04;14.10;;;8.98;;
37280;SDS011;23169;41.804;12.596;2022-07-22T04:27:32;16.08;;;8.80;;
37280;SDS011;23169;41.804;12.596;2022-07-22T04:30:01;17.35;;;8.77;;
37280;SDS011;23169;41.804;12.596;2022-07-22T04:32:31;18.17;;;8.98;;
37280;SDS011;23169;41.804;12.596;2022-07-22T04:34:59;17.40;;;8.98;;
37280;SDS011;23169;41.804;12.596;2022-07-22T04:37:30;15.05;;;8.85;;
37280;SDS011;23169;41.804;12.596;2022-07-22T04:39:58;18.25;;;8.80;;
37280;SDS011;23169;41.804;12.596;2022-07-22T04:42:27;17.90;;;9.57;;
37280;SDS011;23169;41.804;12.596;2022-07-22T04:44:55;16.58;;;9.07;;
37280;SDS011;23169;41.804;12.596;2022-07-22T04:47:23;16.45;;;9.40;;
37280;SDS011;23169;41.804;12.596;2022-07-22T04:49:51;16.05;;;9.63;;
37280;SDS011;23169;41.804;12.596;2022-07-22T04:52:20;17.40;;;8.80;;
37280;SDS011;23169;41.804;12.596;2022-07-22T04:54:48;17.88;;;9.02;;
37280;SDS011;23169;41.804;12.596;2022-07-22T04:57:16;14.90;;;8.90;;
37280;SDS011;23169;41.804;12.596;2022-07-22T04:59:45;20.27;;;9.55;;
37280;SDS011;23169;41.804;12.596;2022-07-22T05:02:13;15.88;;;9.30;;
37280;SDS011;23169;41.804;12.596;2022-07-22T05:04:41;21.05;;;9.50;;
37280;SDS011;23169;41.804;12.596;2022-07-22T05:07:10;16.85;;;9.65;;
37280;SDS011;23169;41.804;12.596;2022-07-22T05:09:38;18.70;;;9.65;;
37280;SDS011;23169;41.804;12.596;2022-07-22T05:12:06;19.92;;;9.77;;
37280;SDS011;23169;41.804;12.596;2022-07-22T05:14:34;19.77;;;9.88;;
37280;SDS011;23169;41.804;12.596;2022-07-22T05:17:04;21.17;;;11.02;;
37280;SDS011;23169;41.804;12.596;2022-07-22T05:19:40;22.48;;;10.60;;
37280;SDS011;23169;41.804;12.596;2022-07-22T05:22:08;20.77;;;10.57;;
37280;SDS011;23169;41.804;12.596;2022-07-22T05:24:39;19.38;;;10.50;;
37280;SDS011;23169;41.804;12.596;2022-07-22T05:27:07;20.05;;;10.65;;
37280;SDS011;23169;41.804;12.596;2022-07-22T05:29:37;20.80;;;10.77;;
37280;SDS011;23169;41.804;12.596;2022-07-22T05:32:07;21.33;;;10.18;;
37280;SDS011;23169;41.804;12.596;2022-07-22T05:34:35;20.98;;;10.50;;
37280;SDS011;23169;41.804;12.596;2022-07-22T05:37:04;17.27;;;10.23;;
37280;SDS011;23169;41.804;12.596;2022-07-22T05:39:34;20.90;;;10.57;;
37280;SDS011;23169;41.804;12.596;2022-07-22T05:42:02;17.63;;;10.13;;
37280;SDS011;23169;41.804;12.596;2022-07-22T05:44:32;17.83;;;10.07;;
37280;SDS011;23169;41.804;12.596;2022-07-22T05:47:01;16.85;;;9.98;;
37280;SDS011;23169;41.804;12.596;2022-07-22T05:49:29;19.15;;;9.77;;
37280;SDS011;23169;41.804;12.596;2022-07-22T05:51:57;18.40;;;10.48;;
37280;SDS011;23169;41.804;12.596;2022-07-22T05:54:28;20.95;;;11.02;;
37280;SDS011;23169;41.804;12.596;2022-07-22T05:56:57;19.85;;;10.25;;
37280;SDS011;23169;41.804;12.596;2022-07-22T05:59:28;24.33;;;10.75;;
37280;SDS011;23169;41.804;12.596;2022-07-22T06:01:56;19.70;;;10.43;;
37280;SDS011;23169;41.804;12.596;2022-07-22T06:04:24;19.13;;;10.52;;
37280;SDS011;23169;41.804;12.596;2022-07-22T06:06:52;19.00;;;10.73;;
37280;SDS011;23169;41.804;12.596;2022-07-22T06:09:20;19.98;;;10.95;;
37280;SDS011;23169;41.804;12.596;2022-07-22T06:11:48;21.35;;;10.85;;
37280;SDS011;23169;41.804;12.596;2022-07-22T06:14:16;19.40;;;10.70;;
37280;SDS011;23169;41.804;12.596;2022-07-22T06:16:47;19.58;;;11.10;;
37280;SDS011;23169;41.804;12.596;2022-07-22T06:19:15;19.60;;;10.45;;
37280;SDS011;23169;41.804;12.596;2022-07-22T06:21:43;28.83;;;14.05;;
37280;SDS011;23169;41.804;12.596;2022-07-22T06:24:11;23.88;;;11.05;;
37280;SDS011;23169;41.804;12.596;2022-07-22T06:26:40;18.77;;;10.13;;
37280;SDS011;23169;41.804;12.596;2022-07-22T06:29:09;19.92;;;10.30;;
37280;SDS011;23169;41.804;12.596;2022-07-22T06:31:38;17.40;;;10.20;;
37280;SDS011;23169;41.804;12.596;2022-07-22T06:34:06;19.65;;;9.77;;
37280;SDS011;23169;41.804;12.596;2022-07-22T06:36:34;19.55;;;10.20;;
37280;SDS011;23169;41.804;12.596;2022-07-22T06:39:05;17.75;;;10.02;;
37280;SDS011;23169;41.804;12.596;2022-07-22T06:41:33;19.88;;;9.68;;
37280;SDS011;23169;41.804;12.596;2022-07-22T06:44:02;21.63;;;9.80;;
37280;SDS011;23169;41.804;12.596;2022-07-22T06:46:30;17.00;;;9.27;;
37280;SDS011;23169;41.804;12.596;2022-07-22T06:48:59;21.45;;;8.60;;
37280;SDS011;23169;41.804;12.596;2022-07-22T06:51:30;14.55;;;8.82;;
37280;SDS011;23169;41.804;12.596;2022-07-22T06:53:58;16.33;;;9.15;;
37280;SDS011;23169;41.804;12.596;2022-07-22T06:56:27;18.50;;;9.25;;
37280;SDS011;23169;41.804;12.596;2022-07-22T06:58:55;16.65;;;8.95;;
37280;SDS011;23169;41.804;12.596;2022-07-22T07:01:23;16.75;;;9.00;;
37280;SDS011;23169;41.804;12.596;2022-07-22T07:03:51;24.58;;;9.80;;
37280;SDS011;23169;41.804;12.596;2022-07-22T07:06:20;16.90;;;8.52;;
37280;SDS011;23169;41.804;12.596;2022-07-22T07:08:48;15.85;;;9.10;;
37280;SDS011;23169;41.804;12.596;2022-07-22T07:11:16;16.63;;;8.90;;
37280;SDS011;23169;41.804;12.596;2022-07-22T07:13:44;15.73;;;7.80;;
37280;SDS011;23169;41.804;12.596;2022-07-22T07:16:12;15.68;;;8.05;;
37280;SDS011;23169;41.804;12.596;2022-07-22T07:18:40;14.63;;;7.53;;
37280;SDS011;23169;41.804;12.596;2022-07-22T07:21:09;13.65;;;7.45;;
37280;SDS011;23169;41.804;12.596;2022-07-22T07:23:37;13.93;;;7.28;;
37280;SDS011;23169;41.804;12.596;2022-07-22T07:26:05;12.43;;;7.70;;
37280;SDS011;23169;41.804;12.596;2022-07-22T07:28:34;14.73;;;6.88;;
37280;SDS011;23169;41.804;12.596;2022-07-22T07:31:02;15.95;;;7.38;;
37280;SDS011;23169;41.804;12.596;2022-07-22T07:33:30;16.55;;;7.43;;
37280;SDS011;23169;41.804;12.596;2022-07-22T07:35:59;12.73;;;6.47;;
37280;SDS011;23169;41.804;12.596;2022-07-22T07:38:28;15.90;;;7.57;;
37280;SDS011;23169;41.804;12.596;2022-07-22T07:40:56;16.23;;;7.65;;
37280;SDS011;23169;41.804;12.596;2022-07-22T07:43:25;12.30;;;6.90;;
37280;SDS011;23169;41.804;12.596;2022-07-22T07:45:53;11.60;;;7.25;;
37280;SDS011;23169;41.804;12.596;2022-07-22T07:48:21;14.65;;;6.88;;
37280;SDS011;23169;41.804;12.596;2022-07-22T07:50:49;13.25;;;6.72;;
37280;SDS011;23169;41.804;12.596;2022-07-22T07:53:19;14.50;;;7.10;;
37280;SDS011;23169;41.804;12.596;2022-07-22T07:55:50;19.23;;;6.97;;
37280;SDS011;23169;41.804;12.596;2022-07-22T07:58:18;13.77;;;6.85;;
37280;SDS011;23169;41.804;12.596;2022-07-22T08:00:46;14.07;;;7.05;;
37280;SDS011;23169;41.804;12.596;2022-07-22T08:03:15;12.82;;;7.00;;
37280;SDS011;23169;41.804;12.596;2022-07-22T08:05:47;12.25;;;6.60;;
37280;SDS011;23169;41.804;12.596;2022-07-22T08:08:15;14.50;;;6.88;;
37280;SDS011;23169;41.804;12.596;2022-07-22T08:10:43;14.93;;;6.72;;
37280;SDS011;23169;41.804;12.596;2022-07-22T08:13:12;15.25;;;6.85;;
37280;SDS011;23169;41.804;12.596;2022-07-22T08:15:40;12.18;;;6.65;;
37280;SDS011;23169;41.804;12.596;2022-07-22T08:18:09;12.18;;;6.43;;
37280;SDS011;23169;41.804;12.596;2022-07-22T08:20:37;11.32;;;6.63;;
37280;SDS011;23169;41.804;12.596;2022-07-22T08:23:05;12.68;;;6.30;;
37280;SDS011;23169;41.804;12.596;2022-07-22T08:25:34;10.40;;;6.35;;
37280;SDS011;23169;41.804;12.596;2022-07-22T08:28:02;16.20;;;6.53;;
37280;SDS011;23169;41.804;12.596;2022-07-22T08:30:32;11.38;;;6.10;;
37280;SDS011;23169;41.804;12.596;2022-07-22T08:33:00;12.23;;;6.78;;
37280;SDS011;23169;41.804;12.596;2022-07-22T08:35:29;17.15;;;6.50;;
37280;SDS011;23169;41.804;12.596;2022-07-22T08:37:58;10.05;;;5.85;;
37280;SDS011;23169;41.804;12.596;2022-07-22T08:40:26;11.50;;;6.03;;
37280;SDS011;23169;41.804;12.596;2022-07-22T08:42:55;11.40;;;6.22;;
37280;SDS011;23169;41.804;12.596;2022-07-22T08:45:23;13.90;;;5.82;;
37280;SDS011;23169;41.804;12.596;2022-07-22T08:47:52;10.65;;;6.07;;
37280;SDS011;23169;41.804;12.596;2022-07-22T08:50:20;11.30;;;6.55;;
37280;SDS011;23169;41.804;12.596;2022-07-22T08:52:48;14.02;;;6.45;;
37280;SDS011;23169;41.804;12.596;2022-07-22T08:55:16;11.50;;;6.40;;
37280;SDS011;23169;41.804;12.596;2022-07-22T08:57:45;12.65;;;6.45;;
37280;SDS011;23169;41.804;12.596;2022-07-22T09:00:18;14.25;;;6.45;;
37280;SDS011;23169;41.804;12.596;2022-07-22T09:02:48;12.55;;;6.10;;
37280;SDS011;23169;41.804;12.596;2022-07-22T09:05:16;9.23;;;5.82;;
37280;SDS011;23169;41.804;12.596;2022-07-22T09:07:45;9.50;;;5.75;;
37280;SDS011;23169;41.804;12.596;2022-07-22T09:10:15;11.77;;;6.25;;
37280;SDS011;23169;41.804;12.596;2022-07-22T09:12:55;17.27;;;6.60;;
37280;SDS011;23169;41.804;12.596;2022-07-22T09:15:27;12.02;;;6.10;;
37280;SDS011;23169;41.804;12.596;2022-07-22T09:18:02;12.27;;;6.40;;
37280;SDS011;23169;41.804;12.596;2022-07-22T09:20:33;12.40;;;6.00;;
37280;SDS011;23169;41.804;12.596;2022-07-22T09:23:09;11.05;;;6.03;;
37280;SDS011;23169;41.804;12.596;2022-07-22T09:25:51;14.00;;;6.30;;
37280;SDS011;23169;41.804;12.596;2022-07-22T09:28:20;9.85;;;5.88;;
37280;SDS011;23169;41.804;12.596;2022-07-22T09:30:51;15.77;;;6.13;;
37280;SDS011;23169;41.804;12.596;2022-07-22T09:33:21;10.82;;;5.60;;
37280;SDS011;23169;41.804;12.596;2022-07-22T09:35:50;11.27;;;5.28;;
37280;SDS011;23169;41.804;12.596;2022-07-22T09:38:26;10.27;;;5.75;;
37280;SDS011;23169;41.804;12.596;2022-07-22T09:41:01;13.77;;;5.28;;
37280;SDS011;23169;41.804;12.596;2022-07-22T09:43:29;9.77;;;5.63;;
37280;SDS011;23169;41.804;12.596;2022-07-22T09:46:03;7.85;;;5.10;;
37280;SDS011;23169;41.804;12.596;2022-07-22T09:48:36;8.63;;;5.80;;
37280;SDS011;23169;41.804;12.596;2022-07-22T09:51:05;11.15;;;5.32;;
37280;SDS011;23169;41.804;12.596;2022-07-22T09:53:33;8.35;;;5.25;;
37280;SDS011;23169;41.804;12.596;2022-07-22T09:56:03;10.25;;;5.63;;
37280;SDS011;23169;41.804;12.596;2022-07-22T09:58:34;10.85;;;5.57;;
37280;SDS011;23169;41.804;12.596;2022-07-22T10:01:05;16.17;;;5.68;;
37280;SDS011;23169;41.804;12.596;2022-07-22T10:03:35;15.38;;;6.20;;
37280;SDS011;23169;41.804;12.596;2022-07-22T10:06:06;9.95;;;5.53;;
37280;SDS011;23169;41.804;12.596;2022-07-22T10:08:35;15.05;;;5.82;;
37280;SDS011;23169;41.804;12.596;2022-07-22T10:11:06;11.75;;;5.32;;
37280;SDS011;23169;41.804;12.596;2022-07-22T10:13:34;9.07;;;5.45;;
37280;SDS011;23169;41.804;12.596;2022-07-22T10:16:05;13.40;;;5.22;;
37280;SDS011;23169;41.804;12.596;2022-07-22T10:18:35;13.23;;;5.43;;
37280;SDS011;23169;41.804;12.596;2022-07-22T10:21:07;9.30;;;5.38;;
37280;SDS011;23169;41.804;12.596;2022-07-22T10:24:06;8.80;;;5.13;;
37280;SDS011;23169;41.804;12.596;2022-07-22T10:26:52;8.45;;;5.20;;
37280;SDS011;23169;41.804;12.596;2022-07-22T10:29:23;12.73;;;6.20;;
37280;SDS011;23169;41.804;12.596;2022-07-22T10:32:21;13.68;;;5.55;;
37280;SDS011;23169;41.804;12.596;2022-07-22T10:35:18;15.30;;;5.43;;
37280;SDS011;23169;41.804;12.596;2022-07-22T10:37:48;11.73;;;5.70;;
37280;SDS011;23169;41.804;12.596;2022-07-22T10:45:28;8.55;;;4.93;;
37280;SDS011;23169;41.804;12.596;2022-07-22T10:47:58;8.32;;;5.22;;
37280;SDS011;23169;41.804;12.596;2022-07-22T10:53:16;6.80;;;5.10;;
37280;SDS011;23169;41.804;12.596;2022-07-22T11:01:08;8.88;;;4.85;;
37280;SDS011;23169;41.804;12.596;2022-07-22T11:03:39;7.88;;;4.28;;
37280;SDS011;23169;41.804;12.596;2022-07-22T11:06:28;11.50;;;4.55;;
37280;SDS011;23169;41.804;12.596;2022-07-22T11:08:58;10.82;;;4.80;;
37280;SDS011;23169;41.804;12.596;2022-07-22T11:11:32;6.97;;;4.85;;
37280;SDS011;23169;41.804;12.596;2022-07-22T11:14:39;10.05;;;5.18;;
37280;SDS011;23169;41.804;12.596;2022-07-22T11:17:08;7.22;;;4.68;;
37280;SDS011;23169;41.804;12.596;2022-07-22T11:19:38;11.27;;;4.45;;
37280;SDS011;23169;41.804;12.596;2022-07-22T11:22:08;6.80;;;4.63;;
37280;SDS011;23169;41.804;12.596;2022-07-22T11:24:38;8.48;;;4.45;;
37280;SDS011;23169;41.804;12.596;2022-07-22T11:27:15;10.35;;;4.93;;
37280;SDS011;23169;41.804;12.596;2022-07-22T11:29:49;8.35;;;4.63;;
37280;SDS011;23169;41.804;12.596;2022-07-22T11:32:23;8.93;;;4.82;;
37280;SDS011;23169;41.804;12.596;2022-07-22T11:34:52;9.88;;;5.00;;
37280;SDS011;23169;41.804;12.596;2022-07-22T11:37:22;11.50;;;5.70;;
37280;SDS011;23169;41.804;12.596;2022-07-22T11:40:05;10.05;;;5.28;;
37280;SDS011;23169;41.804;12.596;2022-07-22T11:42:35;12.27;;;5.60;;
37280;SDS011;23169;41.804;12.596;2022-07-22T11:45:04;10.48;;;6.03;;
37280;SDS011;23169;41.804;12.596;2022-07-22T11:47:34;13.43;;;7.40;;
37280;SDS011;23169;41.804;12.596;2022-07-22T11:50:02;8.65;;;5.80;;
37280;SDS011;23169;41.804;12.596;2022-07-22T11:52:31;12.85;;;6.53;;
37280;SDS011;23169;41.804;12.596;2022-07-22T11:55:00;11.45;;;7.03;;
37280;SDS011;23169;41.804;12.596;2022-07-22T11:57:28;10.40;;;6.72;;
37280;SDS011;23169;41.804;12.596;2022-07-22T12:00:05;12.68;;;7.15;;
37280;SDS011;23169;41.804;12.596;2022-07-22T12:02:33;11.30;;;7.10;;
37280;SDS011;23169;41.804;12.596;2022-07-22T12:05:02;11.05;;;6.97;;
37280;SDS011;23169;41.804;12.596;2022-07-22T12:07:30;11.65;;;6.53;;
37280;SDS011;23169;41.804;12.596;2022-07-22T12:09:59;11.10;;;6.78;;
37280;SDS011;23169;41.804;12.596;2022-07-22T12:12:39;10.98;;;6.53;;
37280;SDS011;23169;41.804;12.596;2022-07-22T12:15:09;12.38;;;6.55;;
37280;SDS011;23169;41.804;12.596;2022-07-22T12:17:37;15.88;;;7.30;;
37280;SDS011;23169;41.804;12.596;2022-07-22T12:20:11;9.05;;;6.07;;
37280;SDS011;23169;41.804;12.596;2022-07-22T12:22:45;12.90;;;6.07;;
37280;SDS011;23169;41.804;12.596;2022-07-22T12:25:14;9.93;;;5.78;;
37280;SDS011;23169;41.804;12.596;2022-07-22T12:27:58;8.73;;;5.28;;
37280;SDS011;23169;41.804;12.596;2022-07-22T12:30:28;8.68;;;5.50;;
37280;SDS011;23169;41.804;12.596;2022-07-22T12:32:56;11.98;;;5.68;;
37280;SDS011;23169;41.804;12.596;2022-07-22T12:35:26;10.55;;;5.47;;
37280;SDS011;23169;41.804;12.596;2022-07-22T12:37:59;7.03;;;4.88;;
37280;SDS011;23169;41.804;12.596;2022-07-22T12:40:37;8.45;;;5.47;;
37280;SDS011;23169;41.804;12.596;2022-07-22T12:43:09;5.97;;;4.70;;
37280;SDS011;23169;41.804;12.596;2022-07-22T12:45:38;8.90;;;5.53;;
37280;SDS011;23169;41.804;12.596;2022-07-22T12:48:07;16.80;;;5.70;;
37280;SDS011;23169;41.804;12.596;2022-07-22T12:55:44;12.40;;;5.43;;
37280;SDS011;23169;41.804;12.596;2022-07-22T12:58:14;9.57;;;5.05;;
37280;SDS011;23169;41.804;12.596;2022-07-22T13:00:44;7.00;;;4.60;;
37280;SDS011;23169;41.804;12.596;2022-07-22T13:03:17;14.23;;;5.43;;
37280;SDS011;23169;41.804;12.596;2022-07-22T13:05:56;12.15;;;5.80;;
37280;SDS011;23169;41.804;12.596;2022-07-22T13:08:26;9.05;;;4.80;;
37280;SDS011;23169;41.804;12.596;2022-07-22T13:10:55;7.05;;;4.43;;
37280;SDS011;23169;41.804;12.596;2022-07-22T13:13:24;10.23;;;5.20;;
37280;SDS011;23169;41.804;12.596;2022-07-22T13:15:52;10.23;;;4.70;;
37280;SDS011;23169;41.804;12.596;2022-07-22T13:18:23;6.63;;;4.20;;
37280;SDS011;23169;41.804;12.596;2022-07-22T13:20:52;8.23;;;4.57;;
37280;SDS011;23169;41.804;12.596;2022-07-22T13:23:20;6.95;;;4.63;;
37280;SDS011;23169;41.804;12.596;2022-07-22T13:25:50;5.38;;;4.13;;
37280;SDS011;23169;41.804;12.596;2022-07-22T13:28:18;9.93;;;4.68;;
37280;SDS011;23169;41.804;12.596;2022-07-22T13:30:46;8.18;;;4.13;;
37280;SDS011;23169;41.804;12.596;2022-07-22T13:33:14;5.35;;;3.85;;
37280;SDS011;23169;41.804;12.596;2022-07-22T13:35:44;9.20;;;4.90;;
37280;SDS011;23169;41.804;12.596;2022-07-22T13:38:12;14.48;;;5.00;;
37280;SDS011;23169;41.804;12.596;2022-07-22T13:40:44;6.38;;;4.78;;
37280;SDS011;23169;41.804;12.596;2022-07-22T13:43:19;8.15;;;5.13;;
37280;SDS011;23169;41.804;12.596;2022-07-22T13:45:48;5.85;;;4.05;;
37280;SDS011;23169;41.804;12.596;2022-07-22T13:48:17;10.88;;;4.80;;
37280;SDS011;23169;41.804;12.596;2022-07-22T13:50:47;9.82;;;4.80;;
37280;SDS011;23169;41.804;12.596;2022-07-22T13:53:15;8.18;;;3.83;;
37280;SDS011;23169;41.804;12.596;2022-07-22T13:55:44;10.13;;;3.97;;
37280;SDS011;23169;41.804;12.596;2022-07-22T13:58:12;6.70;;;3.40;;
37280;SDS011;23169;41.804;12.596;2022-07-22T14:00:41;8.35;;;4.35;;
37280;SDS011;23169;41.804;12.596;2022-07-22T14:03:10;6.03;;;3.83;;
37280;SDS011;23169;41.804;12.596;2022-07-22T14:05:38;4.38;;;3.63;;
37280;SDS011;23169;41.804;12.596;2022-07-22T14:08:07;4.95;;;3.45;;
37280;SDS011;23169;41.804;12.596;2022-07-22T14:10:35;6.97;;;3.60;;
37280;SDS011;23169;41.804;12.596;2022-07-22T14:13:06;6.57;;;4.22;;
37280;SDS011;23169;41.804;12.596;2022-07-22T14:15:35;8.63;;;4.38;;
37280;SDS011;23169;41.804;12.596;2022-07-22T14:18:03;8.75;;;4.13;;
37280;SDS011;23169;41.804;12.596;2022-07-22T14:20:34;6.40;;;4.53;;
37280;SDS011;23169;41.804;12.596;2022-07-22T14:23:03;8.05;;;3.95;;
37280;SDS011;23169;41.804;12.596;2022-07-22T14:25:36;10.27;;;3.70;;
37280;SDS011;23169;41.804;12.596;2022-07-22T14:28:05;7.60;;;3.35;;
37280;SDS011;23169;41.804;12.596;2022-07-22T14:30:34;4.90;;;3.90;;
37280;SDS011;23169;41.804;12.596;2022-07-22T14:33:03;7.07;;;4.15;;
37280;SDS011;23169;41.804;12.596;2022-07-22T14:35:31;6.88;;;3.90;;
37280;SDS011;23169;41.804;12.596;2022-07-22T14:38:02;7.95;;;4.57;;
37280;SDS011;23169;41.804;12.596;2022-07-22T14:40:31;5.68;;;3.67;;
37280;SDS011;23169;41.804;12.596;2022-07-22T14:42:59;8.18;;;3.70;;
37280;SDS011;23169;41.804;12.596;2022-07-22T14:45:28;7.07;;;3.88;;
37280;SDS011;23169;41.804;12.596;2022-07-22T14:47:56;5.80;;;3.80;;
37280;SDS011;23169;41.804;12.596;2022-07-22T14:50:24;5.50;;;4.28;;
37280;SDS011;23169;41.804;12.596;2022-07-22T14:52:52;7.57;;;3.78;;
37280;SDS011;23169;41.804;12.596;2022-07-22T14:55:20;5.00;;;3.90;;
37280;SDS011;23169;41.804;12.596;2022-07-22T14:57:48;7.88;;;4.35;;